Time;durP1;ratioP1;P1;durP2;ratioP2;P2;SDS_P1;SDS_P2;PMS_P1;PMS_P2;Temp;Humidity;BMP_temperature;BMP_pressure;BME280_temperature;BME280_humidity;BME280_pressure;Samples;Min_cycle;Max_cycle;Signal;HPM_P1;HPM_P2
2023/03/20 00:00:45;;;;;;;69.28;64.85;;;;;;;7.96;88.49;98382.16;5054581;28;20410;-75
2023/03/20 00:03:11;;;;;;;65.93;61.85;;;;;;;8.05;87.73;98378.13;5040859;28;20032;-75
2023/03/20 00:05:37;;;;;;;67.32;63.10;;;;;;;8.07;88.39;98376.88;5071255;28;20028;-75
2023/03/20 00:08:02;;;;;;;66.70;61.80;;;;;;;7.92;89.88;98383.63;5041272;28;20075;-75
2023/03/20 00:10:40;;;;;;;62.85;58.85;;;;;;;7.85;89.72;98389.06;5062255;28;20040;-75
2023/03/20 00:13:07;;;;;;;81.50;74.03;;;;;;;7.56;88.74;98385.22;5064220;28;20071;-77
2023/03/20 00:15:36;;;;;;;70.43;65.10;;;;;;;7.55;88.71;98388.94;5044987;28;20428;-75
2023/03/20 00:18:02;;;;;;;66.22;61.85;;;;;;;7.57;89.32;98381.50;5040772;28;20038;-76
2023/03/20 00:20:28;;;;;;;78.43;71.47;;;;;;;7.44;90.12;98386.16;5060204;28;20025;-75
2023/03/20 00:22:53;;;;;;;105.95;80.18;;;;;;;7.17;90.92;98376.69;5065649;28;20033;-75
2023/03/20 00:25:21;;;;;;;62.90;59.05;;;;;;;7.70;89.78;98379.75;5044837;28;20115;-75
2023/03/20 00:27:47;;;;;;;65.78;60.75;;;;;;;7.56;90.17;98384.41;5041116;28;20052;-75
2023/03/20 00:30:19;;;;;;;60.70;56.78;;;;;;;7.47;90.25;98380.34;5043528;28;20020;-75
2023/03/20 00:32:46;;;;;;;57.13;53.53;;;;;;;7.73;89.81;98373.91;5030964;28;20076;-75
2023/03/20 00:35:20;;;;;;;59.40;55.40;;;;;;;7.28;91.03;98371.44;5062767;28;20020;-76
2023/03/20 00:37:46;;;;;;;58.88;54.72;;;;;;;7.51;90.25;98371.66;5044250;28;20031;-77
2023/03/20 00:40:12;;;;;;;53.78;50.42;;;;;;;7.63;90.16;98366.41;5040743;28;20375;-77
2023/03/20 00:42:41;;;;;;;58.00;53.53;;;;;;;7.35;90.37;98366.84;5050737;28;20040;-76
2023/03/20 00:45:12;;;;;;;64.10;58.75;;;;;;;7.19;90.45;98372.75;5046963;28;20021;-76
2023/03/20 00:47:40;;;;;;;58.95;54.50;;;;;;;7.19;91.49;98369.28;5058611;28;20086;-77
2023/03/20 00:50:14;;;;;;;67.00;61.20;;;;;;;7.24;90.56;98374.78;5057112;28;20021;-76
2023/03/20 00:52:39;;;;;;;66.10;60.78;;;;;;;7.17;90.00;98368.66;5061948;28;20112;-77
2023/03/20 00:55:05;;;;;;;67.60;61.63;;;;;;;7.21;89.93;98375.25;5064001;28;20435;-77
2023/03/20 00:57:40;;;;;;;56.97;53.38;;;;;;;7.11;90.21;98369.53;5042271;28;20037;-77
2023/03/20 01:00:26;;;;;;;60.55;56.65;;;;;;;7.11;90.84;98366.88;5057025;28;20398;-76
2023/03/20 01:02:54;;;;;;;57.85;53.92;;;;;;;7.00;90.31;98378.28;5057921;28;20040;-76
2023/03/20 01:05:22;;;;;;;75.47;61.00;;;;;;;6.88;91.08;98380.84;5043621;28;20103;-77
2023/03/20 01:07:48;;;;;;;187.52;63.63;;;;;;;6.78;90.65;98370.59;5063415;28;20044;-76
2023/03/20 01:10:14;;;;;;;54.03;50.35;;;;;;;7.03;89.07;98375.16;5057195;28;20108;-76
2023/03/20 01:12:40;;;;;;;55.20;51.97;;;;;;;6.98;88.64;98371.28;5060028;28;20474;-74
2023/03/20 01:15:24;;;;;;;56.67;52.78;;;;;;;6.92;89.54;98366.81;5062002;28;20016;-75
2023/03/20 01:17:51;;;;;;;52.58;49.55;;;;;;;7.02;89.15;98370.84;5060422;28;20040;-75
2023/03/20 01:20:26;;;;;;;60.08;55.88;;;;;;;6.71;89.74;98377.03;5047773;28;20032;-76
2023/03/20 01:22:51;;;;;;;54.03;50.42;;;;;;;6.59;90.01;98371.53;5036825;28;20489;-76
2023/03/20 01:25:17;;;;;;;54.20;51.10;;;;;;;6.60;90.70;98378.53;5053351;28;20028;-75
2023/03/20 01:27:49;;;;;;;57.58;53.72;;;;;;;6.71;89.67;98375.19;5057380;28;20524;-75
2023/03/20 01:30:25;;;;;;;51.25;47.95;;;;;;;6.73;91.03;98372.28;5061904;28;20094;-75
2023/03/20 01:32:51;;;;;;;51.13;48.10;;;;;;;6.86;90.30;98373.00;5036686;28;20036;-75
2023/03/20 01:35:20;;;;;;;48.53;45.63;;;;;;;7.17;89.58;98368.66;5020316;28;20104;-75
2023/03/20 01:37:47;;;;;;;53.58;50.25;;;;;;;7.06;90.34;98367.53;5047026;28;20454;-75
2023/03/20 01:40:22;;;;;;;47.85;44.88;;;;;;;7.17;90.74;98379.38;5059943;28;20036;-75
2023/03/20 01:42:47;;;;;;;52.35;49.28;;;;;;;7.53;89.31;98379.50;5048206;28;20040;-75
2023/03/20 01:45:20;;;;;;;53.03;50.10;;;;;;;7.52;89.90;98367.94;5051368;28;20024;-74
2023/03/20 01:47:46;;;;;;;55.58;52.10;;;;;;;7.71;89.46;98376.84;5056542;28;20131;-74
2023/03/20 01:50:25;;;;;;;52.30;49.20;;;;;;;7.65;89.74;98373.16;5056595;28;20070;-75
2023/03/20 01:53:14;;;;;;;53.63;50.63;;;;;;;7.79;88.86;98384.59;5046248;28;20060;-74
2023/03/20 01:55:46;;;;;;;56.67;52.90;;;;;;;7.82;90.18;98384.13;5037006;28;20040;-74
2023/03/20 01:58:18;;;;;;;56.95;52.95;;;;;;;7.27;90.98;98399.28;5038261;28;20028;-75
2023/03/20 02:00:45;;;;;;;52.63;49.42;;;;;;;7.49;90.37;98394.38;5063643;28;20419;-75
2023/03/20 02:03:14;;;;;;;53.72;49.95;;;;;;;7.69;90.35;98405.72;5049906;28;20021;-75
2023/03/20 02:06:00;;;;;;;52.78;49.70;;;;;;;7.54;90.37;98403.38;5052865;28;20037;-75
2023/03/20 02:08:46;;;;;;;52.40;49.13;;;;;;;7.74;89.18;98395.16;5044489;28;20036;-76
2023/03/20 02:11:12;;;;;;;52.58;49.55;;;;;;;7.76;89.27;98386.88;5041834;28;20036;-76
2023/03/20 02:13:38;;;;;;;56.17;52.60;;;;;;;7.85;88.77;98391.75;5035835;28;20017;-76
2023/03/20 02:16:10;;;;;;;52.85;49.80;;;;;;;7.85;88.86;98402.47;5049475;28;20024;-75
2023/03/20 02:19:03;;;;;;;51.65;48.58;;;;;;;7.89;87.70;98394.81;5039468;28;20047;-74
2023/03/20 02:21:44;;;;;;;54.38;51.20;;;;;;;7.86;89.56;98395.25;5049115;28;20029;-75
2023/03/20 02:24:43;;;;;;;54.33;51.00;;;;;;;7.77;89.37;98392.00;5052246;28;20029;-75
2023/03/20 02:27:15;;;;;;;50.13;47.35;;;;;;;7.90;88.54;98397.25;5045005;28;20040;-75
2023/03/20 02:30:12;;;;;;;54.08;51.05;;;;;;;7.87;88.52;98392.34;5037844;28;20391;-75
2023/03/20 02:32:50;;;;;;;56.17;52.80;;;;;;;7.84;89.28;98398.13;5065973;28;20029;-75
2023/03/20 02:36:00;;;;;;;54.03;50.63;;;;;;;7.55;90.05;98394.31;5015979;28;20151;-75
2023/03/20 02:38:34;;;;;;;53.20;49.88;;;;;;;7.57;88.87;98386.88;5025233;28;20563;-75
2023/03/20 02:41:14;;;;;;;60.50;56.45;;;;;;;7.50;90.21;98396.00;5048033;28;20037;-75
2023/03/20 02:43:56;;;;;;;55.25;51.85;;;;;;;7.44;89.96;98386.16;5064953;28;20040;-75
2023/03/20 02:46:33;;;;;;;56.58;53.03;;;;;;;7.51;89.68;98398.44;5062780;28;20391;-75
2023/03/20 02:49:10;;;;;;;57.80;53.75;;;;;;;7.50;89.95;98393.31;5048759;28;20498;-75
2023/03/20 02:51:41;;;;;;;56.67;52.55;;;;;;;7.60;90.09;98393.66;5035325;28;20053;-75
2023/03/20 02:54:13;;;;;;;54.80;51.28;;;;;;;7.66;90.36;98387.38;5041190;28;20037;-75
2023/03/20 02:57:04;;;;;;;60.22;56.42;;;;;;;7.70;89.26;98391.28;5041952;28;20456;-79
2023/03/20 02:59:41;;;;;;;56.88;52.78;;;;;;;7.72;89.28;98391.06;5030059;28;20398;-76
2023/03/20 03:02:20;;;;;;;58.10;54.33;;;;;;;7.71;90.22;98392.91;5042195;28;20090;-77
2023/03/20 03:04:50;;;;;;;58.97;55.15;;;;;;;7.82;90.82;98394.84;5041470;28;20028;-77
2023/03/20 03:07:18;;;;;;;60.85;56.65;;;;;;;7.83;90.07;98398.38;5062701;28;20062;-77
2023/03/20 03:09:50;;;;;;;58.70;54.38;;;;;;;7.88;89.53;98402.03;5041788;28;20520;-76
2023/03/20 03:12:28;;;;;;;53.13;49.85;;;;;;;7.91;89.61;98398.09;5028465;28;20037;-76
2023/03/20 03:15:03;;;;;;;60.03;55.67;;;;;;;7.91;89.34;98404.25;5048657;28;20032;-76
2023/03/20 03:17:31;;;;;;;59.33;55.53;;;;;;;7.96;89.39;98396.34;5064589;28;20024;-76
2023/03/20 03:20:04;;;;;;;63.92;58.35;;;;;;;7.98;89.49;98398.84;5034831;28;20429;-76
2023/03/20 03:22:33;;;;;;;61.65;57.30;;;;;;;8.00;90.02;98397.56;5049320;28;20081;-76
2023/03/20 03:24:58;;;;;;;60.58;56.17;;;;;;;7.79;90.12;98400.69;5046553;28;20021;-75
2023/03/20 03:27:27;;;;;;;57.90;54.03;;;;;;;7.86;89.48;98408.66;5031483;28;20521;-75
2023/03/20 03:29:59;;;;;;;59.85;55.40;;;;;;;7.84;89.99;98403.50;5027017;28;20032;-76
2023/03/20 03:32:31;;;;;;;61.60;57.00;;;;;;;7.86;90.57;98405.97;5038343;28;20406;-76
2023/03/20 03:34:57;;;;;;;57.55;53.03;;;;;;;7.75;90.39;98399.47;5043807;28;20036;-75
2023/03/20 03:37:49;;;;;;;60.17;56.15;;;;;;;7.74;89.64;98405.06;5041383;28;20020;-75
2023/03/20 03:40:19;;;;;;;61.60;56.75;;;;;;;7.72;90.38;98399.94;5057291;28;20131;-74
2023/03/20 03:42:52;;;;;;;62.42;58.10;;;;;;;7.85;89.76;98398.97;5034323;28;20047;-75
2023/03/20 03:45:28;;;;;;;65.45;60.45;;;;;;;7.85;89.89;98399.78;5050835;28;20371;-74
2023/03/20 03:47:54;;;;;;;;;;;;;;;7.97;89.65;98408.75;5034846;28;20028;-77
2023/03/20 03:50:47;;;;;;;72.38;66.28;;;;;;;7.90;89.62;98399.94;5034400;28;19912;-77
2023/03/20 03:53:15;;;;;;;67.40;62.47;;;;;;;7.81;89.42;98401.28;5038835;28;20044;-78
2023/03/20 03:55:44;;;;;;;71.22;65.78;;;;;;;7.60;90.30;98404.38;5028163;28;20020;-77
2023/03/20 03:58:24;;;;;;;67.72;62.58;;;;;;;7.74;90.27;98402.38;5040908;28;20119;-76
2023/03/20 04:00:51;;;;;;;68.35;62.97;;;;;;;7.63;90.40;98398.56;5048388;28;20029;-78
2023/03/20 04:03:19;;;;;;;65.80;60.83;;;;;;;7.59;91.31;98405.41;5055951;28;20035;-77
2023/03/20 04:05:45;;;;;;;63.70;59.25;;;;;;;7.68;90.57;98404.06;5042591;28;20690;-78
2023/03/20 04:08:10;;;;;;;68.45;62.80;;;;;;;7.83;90.04;98412.59;5047421;28;20029;-76
2023/03/20 04:10:36;;;;;;;67.82;62.40;;;;;;;7.57;91.23;98418.19;5043438;28;20116;-77
2023/03/20 04:13:01;;;;;;;65.50;60.08;;;;;;;7.54;90.71;98418.63;5051672;28;20052;-77
2023/03/20 04:15:27;;;;;;;66.20;61.63;;;;;;;7.65;90.75;98420.63;5060392;28;20107;-77
2023/03/20 04:17:54;;;;;;;64.15;59.45;;;;;;;7.72;90.38;98416.00;5040550;28;20075;-77
2023/03/20 04:20:19;;;;;;;65.43;60.13;;;;;;;7.66;90.32;98423.06;5044546;28;20033;-77
2023/03/20 04:22:46;;;;;;;62.28;57.63;;;;;;;7.81;89.92;98414.69;5047405;28;20029;-78
2023/03/20 04:25:21;;;;;;;62.92;58.45;;;;;;;7.85;89.89;98423.09;5043582;28;20044;-78
2023/03/20 04:27:49;;;;;;;63.70;59.33;;;;;;;7.90;90.18;98421.41;5040973;28;20486;-78
2023/03/20 04:30:28;;;;;;;62.95;58.22;;;;;;;7.87;90.41;98429.88;5044983;28;20052;-78
2023/03/20 04:33:16;;;;;;;62.25;57.45;;;;;;;7.85;90.20;98420.41;5052763;28;20037;-78
2023/03/20 04:35:59;;;;;;;61.72;57.00;;;;;;;7.88;90.32;98423.47;5065348;28;20028;-77
2023/03/20 04:38:24;;;;;;;60.92;56.45;;;;;;;7.90;90.06;98429.44;5042058;28;20039;-77
2023/03/20 04:40:51;;;;;;;64.28;59.30;;;;;;;7.79;90.72;98424.81;5047337;28;20028;-75
2023/03/20 04:43:17;;;;;;;64.15;59.15;;;;;;;7.73;90.54;98433.72;5045313;28;20596;-77
2023/03/20 04:45:43;;;;;;;59.72;55.55;;;;;;;7.97;89.59;98430.19;5058789;28;20017;-77
2023/03/20 04:48:09;;;;;;;68.25;62.80;;;;;;;7.90;90.03;98434.81;5046086;28;20120;-77
2023/03/20 04:50:34;;;;;;;62.50;57.67;;;;;;;7.85;90.22;98426.59;5034703;28;20025;-77
2023/03/20 04:53:00;;;;;;;64.85;59.75;;;;;;;8.02;89.72;98427.66;5032466;28;20043;-77
2023/03/20 04:55:26;;;;;;;61.88;57.40;;;;;;;7.90;90.22;98439.34;5043994;28;20027;-75
2023/03/20 04:57:53;;;;;;;72.65;66.05;;;;;;;7.90;90.19;98440.16;5046391;28;20037;-75
2023/03/20 05:00:18;;;;;;;70.68;64.32;;;;;;;7.68;91.06;98444.28;5050758;28;20091;-75
2023/03/20 05:02:44;;;;;;;71.57;65.32;;;;;;;7.59;91.70;98445.59;5036715;28;20062;-77
2023/03/20 05:05:09;;;;;;;73.18;67.53;;;;;;;7.66;91.25;98438.31;5040965;28;20575;-78
2023/03/20 05:07:35;;;;;;;67.40;62.00;;;;;;;7.88;89.83;98446.78;5059877;28;20041;-78
2023/03/20 05:10:06;;;;;;;74.63;68.75;;;;;;;7.80;90.32;98445.19;5045761;28;20393;-74
2023/03/20 05:12:40;;;;;;;73.95;67.75;;;;;;;7.59;91.48;98453.63;5028624;28;20045;-75
2023/03/20 05:15:06;;;;;;;77.13;70.20;;;;;;;7.68;91.78;98457.69;5054940;28;20048;-74
2023/03/20 05:17:58;;;;;;;78.53;71.55;;;;;;;7.71;91.14;98451.06;5069985;28;20064;-77
2023/03/20 05:20:31;;;;;;;77.32;70.78;;;;;;;7.77;91.21;98464.41;5057851;28;20036;-76
2023/03/20 05:23:16;;;;;;;79.28;72.38;;;;;;;7.74;91.25;98456.81;5047379;28;20047;-78
2023/03/20 05:26:02;;;;;;;70.55;64.82;;;;;;;7.80;91.19;98450.56;5044168;28;20111;-77
2023/03/20 05:28:46;;;;;;;72.03;66.28;;;;;;;7.93;90.79;98460.34;5050287;28;20051;-77
2023/03/20 05:31:32;;;;;;;73.50;67.60;;;;;;;7.88;90.46;98458.34;5061518;28;20040;-76
2023/03/20 05:34:04;;;;;;;71.57;65.63;;;;;;;7.87;90.34;98472.78;5055028;28;20033;-76
2023/03/20 05:36:42;;;;;;;64.60;59.58;;;;;;;8.06;90.15;98466.41;5056210;28;20074;-77
2023/03/20 05:39:21;;;;;;;66.13;60.92;;;;;;;7.95;90.10;98459.09;5066320;28;20028;-78
2023/03/20 05:42:05;;;;;;;69.93;64.13;;;;;;;8.03;90.34;98461.47;5066465;28;20036;-76
2023/03/20 05:44:49;;;;;;;70.93;65.18;;;;;;;7.87;90.38;98472.78;5062741;28;20048;-75
2023/03/20 05:47:33;;;;;;;74.50;68.35;;;;;;;7.83;91.04;98476.13;5066886;28;20055;-73
2023/03/20 05:50:21;;;;;;;72.88;66.85;;;;;;;7.90;91.02;98477.69;5039361;28;20044;-73
2023/03/20 05:53:12;;;;;;;73.50;67.20;;;;;;;7.86;90.69;98489.09;5039595;28;20075;-73
2023/03/20 05:55:45;;;;;;;73.47;66.65;;;;;;;7.98;91.11;98485.44;5061202;28;20029;-75
2023/03/20 05:58:13;;;;;;;71.47;65.80;;;;;;;7.97;90.60;98499.09;5059417;28;20044;-77
2023/03/20 06:00:57;;;;;;;72.30;66.72;;;;;;;7.99;90.96;98497.84;5063209;28;20025;-76
2023/03/20 06:03:51;;;;;;;74.22;68.07;;;;;;;7.96;90.32;98498.25;5048226;28;20039;-77
2023/03/20 06:06:36;;;;;;;73.50;67.35;;;;;;;7.97;90.65;98497.25;5055520;28;20043;-75
2023/03/20 06:09:03;;;;;;;68.25;62.83;;;;;;;8.11;90.59;98500.59;5046856;28;20029;-76
2023/03/20 06:11:29;;;;;;;71.97;66.15;;;;;;;7.96;90.32;98497.47;5042636;28;20070;-76
2023/03/20 06:13:56;;;;;;;71.68;66.07;;;;;;;8.08;90.92;98493.00;5045838;28;20406;-76
2023/03/20 06:16:26;;;;;;;68.65;63.08;;;;;;;8.01;90.61;98497.59;5050162;28;20025;-77
2023/03/20 06:18:52;;;;;;;74.63;68.43;;;;;;;8.01;90.93;98501.09;5047066;28;20082;-78
2023/03/20 06:21:17;;;;;;;74.00;67.75;;;;;;;8.07;90.43;98502.94;5061481;28;20024;-74
2023/03/20 06:23:43;;;;;;;77.57;70.93;;;;;;;7.98;90.99;98493.50;5061205;28;20111;-76
2023/03/20 06:26:08;;;;;;;76.38;69.88;;;;;;;8.07;90.18;98494.88;5065985;28;20025;-75
2023/03/20 06:28:49;;;;;;;75.07;68.65;;;;;;;8.05;90.74;98507.66;5050548;28;20036;-75
2023/03/20 06:31:15;;;;;;;78.18;71.55;;;;;;;8.04;90.60;98505.22;5042252;28;20101;-75
2023/03/20 06:33:40;;;;;;;74.22;68.15;;;;;;;8.08;90.41;98517.13;5059737;28;20029;-75
2023/03/20 06:36:07;;;;;;;86.78;78.90;;;;;;;8.07;90.49;98510.97;5033180;28;20437;-77
2023/03/20 06:38:33;;;;;;;90.30;82.40;;;;;;;8.00;90.52;98510.22;5039314;28;20052;-78
2023/03/20 06:41:05;;;;;;;96.93;88.38;;;;;;;8.04;90.47;98506.03;5039109;28;20569;-78
2023/03/20 06:43:31;;;;;;;92.22;83.65;;;;;;;8.05;90.92;98510.34;5066622;28;20433;-75
2023/03/20 06:45:56;;;;;;;80.82;74.25;;;;;;;8.12;89.76;98497.69;5058491;28;20070;-75
2023/03/20 06:48:25;;;;;;;82.22;75.15;;;;;;;8.05;90.44;98499.63;5026289;28;20045;-75
2023/03/20 06:50:51;;;;;;;80.63;74.00;;;;;;;8.08;90.41;98496.50;5045205;28;20043;-75
2023/03/20 06:53:20;;;;;;;80.40;73.60;;;;;;;7.98;90.76;98501.53;5058344;28;20040;-75
2023/03/20 06:56:06;;;;;;;81.00;74.75;;;;;;;8.12;91.31;98497.69;5051065;28;20021;-77
2023/03/20 06:58:31;;;;;;;81.35;75.05;;;;;;;8.14;89.86;98506.38;5048906;28;20483;-78
2023/03/20 07:00:57;;;;;;;86.10;78.72;;;;;;;8.04;90.17;98506.03;5046265;28;20070;-77
2023/03/20 07:03:22;;;;;;;82.72;76.05;;;;;;;8.18;90.67;98507.56;5043112;28;20093;-79
2023/03/20 07:05:49;;;;;;;83.68;76.63;;;;;;;8.33;90.40;98512.59;5072547;28;20016;-78
2023/03/20 07:08:15;;;;;;;81.38;74.38;;;;;;;8.24;89.77;98517.38;5057970;28;20036;-78
2023/03/20 07:10:41;;;;;;;84.78;77.25;;;;;;;8.28;89.64;98515.94;5044693;28;20441;-78
2023/03/20 07:13:08;;;;;;;82.50;75.53;;;;;;;8.34;89.46;98514.22;5048295;28;20043;-78
2023/03/20 07:15:35;;;;;;;82.47;75.60;;;;;;;8.40;89.51;98520.59;5046295;28;20650;-78
2023/03/20 07:18:01;;;;;;;84.90;77.70;;;;;;;8.30;89.17;98516.56;5037696;28;20032;-78
2023/03/20 07:20:26;;;;;;;82.03;75.20;;;;;;;8.34;89.85;98512.38;5064206;28;20026;-78
2023/03/20 07:22:54;;;;;;;82.32;75.25;;;;;;;8.25;89.94;98516.38;5024813;28;20040;-78
2023/03/20 07:25:22;;;;;;;86.75;79.53;;;;;;;8.18;90.34;98523.66;5044061;28;20501;-78
2023/03/20 07:27:49;;;;;;;91.40;83.28;;;;;;;8.38;90.04;98520.78;5064961;28;20045;-77
2023/03/20 07:30:17;;;;;;;86.10;78.93;;;;;;;8.34;89.58;98522.28;5047948;28;20020;-78
2023/03/20 07:32:44;;;;;;;83.80;77.03;;;;;;;8.39;89.95;98525.13;5025209;28;20445;-78
2023/03/20 07:35:10;;;;;;;83.38;76.60;;;;;;;8.42;90.00;98529.22;5059111;28;20078;-77
2023/03/20 07:37:39;;;;;;;81.30;74.95;;;;;;;8.41;89.42;98527.56;5048746;28;20033;-78
2023/03/20 07:40:05;;;;;;;80.68;73.50;;;;;;;8.40;89.27;98531.31;5034699;28;20551;-78
2023/03/20 07:42:34;;;;;;;78.70;72.05;;;;;;;8.39;89.32;98525.13;5034717;28;20489;-78
2023/03/20 07:45:19;;;;;;;81.18;74.15;;;;;;;8.41;89.26;98528.41;5029675;28;20491;-78
2023/03/20 07:47:47;;;;;;;84.45;77.30;;;;;;;8.50;90.20;98526.25;5059971;28;20071;-78
2023/03/20 07:50:12;;;;;;;81.57;74.90;;;;;;;8.65;89.28;98524.84;5052309;28;20028;-77
2023/03/20 07:52:45;;;;;;;78.80;72.47;;;;;;;8.66;89.30;98536.41;5027368;28;20415;-78
2023/03/20 07:55:11;;;;;;;84.68;77.63;;;;;;;8.65;89.34;98529.38;5039255;28;20029;-78
2023/03/20 07:57:36;;;;;;;79.22;72.93;;;;;;;8.83;88.20;98534.75;5018565;28;20096;-78
2023/03/20 08:00:03;;;;;;;78.20;71.93;;;;;;;8.73;89.15;98529.06;5048111;28;20043;-78
2023/03/20 08:02:37;;;;;;;80.57;73.85;;;;;;;8.87;88.82;98522.50;5063646;28;20029;-78
2023/03/20 08:05:02;;;;;;;77.13;70.80;;;;;;;8.82;88.77;98527.75;5055927;28;20044;-78
2023/03/20 08:07:28;;;;;;;79.85;73.28;;;;;;;8.88;88.58;98534.91;5062095;28;20037;-78
2023/03/20 08:09:54;;;;;;;78.82;72.57;;;;;;;8.93;88.17;98532.34;5067721;28;20076;-78
2023/03/20 08:12:20;;;;;;;77.50;71.05;;;;;;;9.06;87.80;98526.81;5050958;28;20025;-78
2023/03/20 08:14:45;;;;;;;80.15;73.75;;;;;;;9.08;88.23;98527.41;5034793;28;20044;-78
2023/03/20 08:17:11;;;;;;;78.55;72.35;;;;;;;9.25;87.30;98523.03;5052360;28;20024;-78
2023/03/20 08:19:37;;;;;;;76.60;70.18;;;;;;;9.12;87.94;98512.50;5047520;28;20603;-78
2023/03/20 08:22:02;;;;;;;76.15;69.93;;;;;;;9.21;87.70;98516.50;5062915;28;20066;-78
2023/03/20 08:24:28;;;;;;;75.97;70.07;;;;;;;9.45;87.50;98520.88;5056606;28;20040;-78
2023/03/20 08:26:54;;;;;;;74.75;68.68;;;;;;;9.36;87.30;98518.78;5044335;28;20039;-76
2023/03/20 08:29:19;;;;;;;78.35;72.22;;;;;;;9.37;86.60;98529.28;5064990;28;20040;-71
2023/03/20 08:31:45;;;;;;;74.88;69.28;;;;;;;9.58;86.51;98526.09;5059537;28;21354;-72
2023/03/20 08:34:10;;;;;;;83.43;76.85;;;;;;;9.47;87.48;98524.19;5054349;28;20084;-75
2023/03/20 08:36:36;;;;;;;77.20;71.40;;;;;;;9.59;86.75;98526.91;5042642;28;20444;-76
2023/03/20 08:39:01;;;;;;;76.85;70.75;;;;;;;9.49;87.23;98532.84;5057385;28;20455;-77
2023/03/20 08:41:27;;;;;;;76.18;70.30;;;;;;;9.54;87.30;98535.66;5060744;28;20021;-76
2023/03/20 08:43:52;;;;;;;76.18;70.25;;;;;;;9.68;86.79;98537.06;5066095;28;20056;-78
2023/03/20 08:46:18;;;;;;;75.88;69.75;;;;;;;9.75;86.38;98548.56;5060505;28;20073;-76
2023/03/20 08:48:43;;;;;;;78.85;73.03;;;;;;;9.71;87.23;98546.56;5053465;28;20518;-77
2023/03/20 08:51:08;;;;;;;73.75;68.28;;;;;;;9.91;85.98;98540.88;5064015;28;20032;-78
2023/03/20 08:53:34;;;;;;;76.13;70.55;;;;;;;10.00;86.01;98555.63;5067595;28;20119;-78
2023/03/20 08:56:00;;;;;;;75.28;69.57;;;;;;;10.08;85.47;98549.94;5061413;28;20012;-78
2023/03/20 08:58:26;;;;;;;74.65;69.05;;;;;;;10.01;85.88;98557.28;5060029;28;20035;-78
2023/03/20 09:00:51;;;;;;;74.65;69.15;;;;;;;10.09;86.21;98543.47;5065525;28;20025;-78
2023/03/20 09:03:18;;;;;;;74.57;69.30;;;;;;;10.17;85.42;98545.88;5055208;28;20048;-78
2023/03/20 09:05:47;;;;;;;76.63;71.35;;;;;;;10.14;85.65;98546.31;5042802;28;20024;-78
2023/03/20 09:08:13;;;;;;;76.13;70.70;;;;;;;10.20;85.15;98545.38;5070310;28;20044;-78
2023/03/20 09:10:39;;;;;;;76.03;70.32;;;;;;;9.98;85.93;98552.34;5063568;28;20112;-78
2023/03/20 09:13:05;;;;;;;75.18;69.50;;;;;;;9.69;87.42;98564.78;5056802;28;20039;-78
2023/03/20 09:15:30;;;;;;;95.47;86.30;;;;;;;9.81;86.84;98557.59;5065352;28;20025;-77
2023/03/20 09:17:56;;;;;;;85.38;78.38;;;;;;;9.90;86.02;98566.97;5051009;28;20033;-79
2023/03/20 09:20:21;;;;;;;82.30;75.65;;;;;;;9.94;86.48;98567.34;5052158;28;20031;-78
2023/03/20 09:22:46;;;;;;;82.13;75.72;;;;;;;9.86;86.55;98567.66;5054786;28;20129;-78
2023/03/20 09:25:12;;;;;;;81.75;75.50;;;;;;;9.81;86.92;98562.13;5045640;28;20021;-78
2023/03/20 09:27:38;;;;;;;76.57;70.88;;;;;;;9.81;86.58;98562.97;5066915;28;20064;-79
2023/03/20 09:30:05;;;;;;;76.03;70.45;;;;;;;9.68;87.17;98563.19;5052504;28;20025;-78
2023/03/20 09:32:31;;;;;;;77.90;71.90;;;;;;;9.71;86.76;98563.53;5050990;28;20045;-78
2023/03/20 09:34:57;;;;;;;79.65;73.90;;;;;;;9.68;86.56;98569.34;5065416;28;20080;-78
2023/03/20 09:37:22;;;;;;;76.00;70.25;;;;;;;9.83;86.93;98566.25;5062720;28;20068;-78
2023/03/20 09:39:47;;;;;;;78.95;73.35;;;;;;;9.89;86.11;98565.34;5067156;28;20084;-78
2023/03/20 09:42:43;;;;;;;79.95;74.03;;;;;;;9.90;85.89;98576.91;5059643;28;20044;-79
2023/03/20 09:45:15;;;;;;;76.13;70.60;;;;;;;9.95;85.78;98577.03;5063172;28;20090;-78
2023/03/20 09:47:58;;;;;;;75.80;70.18;;;;;;;9.64;86.41;98573.56;5050970;28;20032;-78
2023/03/20 09:50:37;;;;;;;76.13;70.32;;;;;;;9.49;87.32;98570.47;5060795;28;20037;-76
2023/03/20 09:53:13;;;;;;;78.15;72.43;;;;;;;9.79;86.64;98577.69;5063915;28;20090;-77
2023/03/20 09:55:40;;;;;;;80.40;74.60;;;;;;;9.83;86.68;98570.78;5052946;28;20025;-78
2023/03/20 09:58:22;;;;;;;77.88;72.32;;;;;;;9.92;86.30;98566.75;5056320;28;20028;-78
2023/03/20 10:00:47;;;;;;;77.50;72.05;;;;;;;10.00;86.01;98566.41;5054001;28;20039;-79
2023/03/20 10:03:23;;;;;;;75.43;69.93;;;;;;;10.08;85.58;98558.00;5060876;28;20029;-78
2023/03/20 10:05:51;;;;;;;;;;;;;;;9.89;86.16;98577.97;5036222;28;20052;-78
2023/03/20 10:08:20;;;;;;;75.93;70.18;;;;;;;9.75;87.42;98570.06;5087638;28;19913;-78
2023/03/20 10:11:22;;;;;;;76.35;70.70;;;;;;;9.93;86.83;98571.06;5059301;28;20486;-78
2023/03/20 10:13:57;;;;;;;79.22;73.53;;;;;;;9.90;86.75;98571.50;5051963;28;20071;-79
2023/03/20 10:16:46;;;;;;;79.47;73.53;;;;;;;9.95;86.80;98580.53;5063728;28;20073;-78
2023/03/20 10:19:23;;;;;;;74.00;68.65;;;;;;;10.02;86.68;98565.13;5059495;28;20116;-78
2023/03/20 10:21:56;;;;;;;75.10;69.68;;;;;;;9.94;86.32;98561.94;5055488;28;20048;-78
2023/03/20 10:24:34;;;;;;;76.88;71.32;;;;;;;10.04;86.85;98568.38;5057883;28;20036;-78
2023/03/20 10:27:05;;;;;;;73.53;68.22;;;;;;;10.31;85.27;98568.81;5065961;28;20063;-78
2023/03/20 10:29:44;;;;;;;75.30;69.85;;;;;;;10.27;85.63;98581.91;5036139;28;20071;-79
2023/03/20 10:32:12;;;;;;;74.22;69.05;;;;;;;10.24;85.82;98573.50;5055874;28;20075;-79
2023/03/20 10:34:45;;;;;;;73.10;67.88;;;;;;;10.47;85.26;98573.50;5029270;28;20469;-78
2023/03/20 10:37:24;;;;;;;71.63;66.72;;;;;;;10.28;85.25;98569.28;5062708;28;20044;-78
2023/03/20 10:39:52;;;;;;;70.40;65.50;;;;;;;10.47;85.00;98561.91;5067490;28;20040;-78
2023/03/20 10:42:30;;;;;;;70.93;66.07;;;;;;;10.67;83.98;98560.47;5054695;28;20037;-79
2023/03/20 10:45:00;;;;;;;71.35;66.35;;;;;;;10.42;85.21;98576.06;5065785;28;20028;-78
2023/03/20 10:47:28;;;;;;;72.13;67.03;;;;;;;10.19;86.40;98562.59;5061594;28;20048;-78
2023/03/20 10:50:07;;;;;;;68.65;63.90;;;;;;;10.38;85.05;98564.94;5063409;28;20021;-78
2023/03/20 10:52:35;;;;;;;67.80;63.22;;;;;;;10.31;85.48;98566.13;5024641;28;20437;-78
2023/03/20 10:55:13;;;;;;;70.72;66.13;;;;;;;10.22;85.61;98570.22;5054488;28;20090;-79
2023/03/20 10:57:45;;;;;;;71.13;66.47;;;;;;;10.56;84.46;98555.09;5047116;28;20035;-79
2023/03/20 11:00:20;;;;;;;69.18;64.68;;;;;;;10.44;84.38;98557.81;5044923;28;20127;-78
2023/03/20 11:02:45;;;;;;;66.68;62.38;;;;;;;10.53;84.39;98551.00;5063948;28;20033;-78
2023/03/20 11:05:26;;;;;;;65.05;60.60;;;;;;;10.69;84.50;98557.56;5054542;28;20031;-78
2023/03/20 11:08:00;;;;;;;65.13;60.83;;;;;;;10.65;84.95;98557.22;5054880;28;20126;-79
2023/03/20 11:10:26;;;;;;;61.95;57.95;;;;;;;10.48;84.69;98564.34;5066572;28;20368;-79
2023/03/20 11:12:52;;;;;;;62.03;57.92;;;;;;;10.55;83.98;98566.94;5067951;28;20027;-78
2023/03/20 11:15:31;;;;;;;59.22;55.50;;;;;;;10.47;83.22;98560.03;5046213;28;20097;-78
2023/03/20 11:18:06;;;;;;;59.90;56.10;;;;;;;10.42;83.43;98568.00;5061475;28;20058;-79
2023/03/20 11:20:43;;;;;;;60.30;56.53;;;;;;;10.45;83.36;98564.00;5063344;28;20039;-80
2023/03/20 11:23:15;;;;;;;55.80;52.30;;;;;;;10.47;82.32;98556.50;5067946;28;20116;-79
2023/03/20 11:25:51;;;;;;;58.20;54.60;;;;;;;10.49;83.81;98554.41;5051369;28;20060;-78
2023/03/20 11:28:41;;;;;;;58.17;54.65;;;;;;;10.72;82.70;98555.22;5032886;28;20036;-78
2023/03/20 11:31:09;;;;;;;55.05;51.67;;;;;;;10.63;82.73;98553.94;5060938;28;20068;-77
2023/03/20 11:33:37;;;;;;;55.38;51.78;;;;;;;10.76;81.44;98561.75;5060193;28;20071;-78
2023/03/20 11:36:10;;;;;;;52.90;49.58;;;;;;;10.85;81.22;98554.94;5066822;28;20036;-77
2023/03/20 11:38:42;;;;;;;50.55;47.15;;;;;;;10.90;80.24;98552.34;5054579;28;20098;-78
2023/03/20 11:41:25;;;;;;;49.25;46.08;;;;;;;11.04;81.06;98552.91;5048777;28;20068;-78
2023/03/20 11:43:50;;;;;;;47.25;44.08;;;;;;;11.00;80.89;98552.56;5065855;28;20059;-78